• Join FlightAware (Why Join?)
  • Login
  • US Flag 
06:12PM EDT


 

Airport Tracker/Info


-or-


 

Live Flight TrackerFlight Track Log ✈ CCA4393 ✈ 26-May-2013 ✈ ZUJZ / JZH - ZGGG / CAN

Flight Track Log - Related Links

Times and Time Zones

All times are in EDT time to prevent confusion due to time zone crossing. See the CCA4393 flight status page for this flight to view local times or setup timezone preferences in your user account.

Time Position Orientation Groundspeed Altitude Reporting Facility
EDT Latitude Longitude Course Direction KTS MPH feet Rate Location/Type
08:09PM 32.5287 104.0615 136° Southeast  Level Estimated
08:10PM 32.4464 104.1557 136° Southeast  Level Estimated
08:11PM 32.3641 104.2497 136° Southeast  Level Estimated
08:12PM 32.2817 104.3436 136° Southeast  Level Estimated
08:13PM 32.1993 104.4372 136° Southeast  Level Estimated
08:14PM 32.1167 104.5308 136° Southeast  Level Estimated
08:15PM 32.0341 104.6241 136° Southeast  Level Estimated
08:16PM 31.9515 104.7173 136° Southeast  Level Estimated
08:17PM 31.8687 104.8103 136° Southeast  Level Estimated
08:18PM 31.7859 104.9031 136° Southeast  Level Estimated
08:19PM 31.7031 104.9958 136° Southeast  Level Estimated
08:20PM 31.6201 105.0883 136° Southeast  Level Estimated
08:21PM 31.5371 105.1806 137° Southeast  Level Estimated
08:22PM 31.4541 105.2728 137° Southeast  Level Estimated
08:23PM 31.3709 105.3648 137° Southeast  Level Estimated
08:24PM 31.2877 105.4567 137° Southeast  Level Estimated
08:25PM 31.2045 105.5484 137° Southeast  Level Estimated
08:26PM 31.1211 105.6399 137° Southeast  Level Estimated
08:27PM 31.0378 105.7313 137° Southeast  Level Estimated
08:28PM 30.9543 105.8225 137° Southeast  Level Estimated
08:29PM 30.8708 105.9135 137° Southeast  Level Estimated
08:30PM 30.7872 106.0044 137° Southeast  Level Estimated
08:31PM 30.7035 106.0952 137° Southeast  Level Estimated
08:32PM 30.6198 106.1857 137° Southeast  Level Estimated
08:33PM 30.5361 106.2761 137° Southeast  Level Estimated
08:34PM 30.4522 106.3664 137° Southeast  Level Estimated
08:35PM 30.3683 106.4565 137° Southeast  Level Estimated
08:36PM 30.2844 106.5465 137° Southeast  Level Estimated
08:37PM 30.2003 106.6363 137° Southeast  Level Estimated
08:38PM 30.1163 106.7259 137° Southeast  Level Estimated
08:39PM 30.0321 106.8154 137° Southeast  Level Estimated
08:40PM 29.9479 106.9047 137° Southeast  Level Estimated
08:41PM 29.8637 106.9939 137° Southeast  Level Estimated
08:42PM 29.7793 107.0830 137° Southeast  Level Estimated
08:43PM 29.6950 107.1719 138° Southeast  Level Estimated
08:44PM 29.6105 107.2606 138° Southeast  Level Estimated
08:45PM 29.5260 107.3492 138° Southeast  Level Estimated
08:46PM 29.4415 107.4376 138° Southeast  Level Estimated
08:47PM 29.3568 107.5259 138° Southeast  Level Estimated
08:48PM 29.2722 107.6141 138° Southeast  Level Estimated
08:49PM 29.1874 107.7021 138° Southeast  Level Estimated
08:50PM 29.1026 107.7899 138° Southeast  Level Estimated
08:51PM 29.0178 107.8776 138° Southeast  Level Estimated
08:52PM 28.9329 107.9652 138° Southeast  Level Estimated
08:53PM 28.8479 108.0527 138° Southeast  Level Estimated
08:54PM 28.7629 108.1399 138° Southeast  Level Estimated
08:55PM 28.6778 108.2271 138° Southeast  Level Estimated
08:56PM 28.5927 108.3141 138° Southeast  Level Estimated
08:57PM 28.5075 108.4009 138° Southeast  Level Estimated
08:58PM 28.4223 108.4876 138° Southeast  Level Estimated
08:59PM 28.3370 108.5742 138° Southeast  Level Estimated
09:00PM 28.2516 108.6607 138° Southeast  Level Estimated
09:01PM 28.1662 108.7470 138° Southeast  Level Estimated
09:02PM 28.0807 108.8331 138° Southeast  Level Estimated
09:03PM 27.9952 108.9192 138° Southeast  Level Estimated
09:04PM 27.9097 109.0051 138° Southeast  Level Estimated
09:05PM 27.8240 109.0908 138° Southeast  Level Estimated
09:06PM 27.7384 109.1764 138° Southeast  Level Estimated
09:07PM 27.6526 109.2619 139° Southeast  Level Estimated
09:08PM 27.5669 109.3473 139° Southeast  Level Estimated
09:09PM 27.4810 109.4325 139° Southeast  Level Estimated
09:10PM 27.3951 109.5176 139° Southeast  Level Estimated
09:11PM 27.3092 109.6025 139° Southeast  Level Estimated
09:12PM 27.2232 109.6873 139° Southeast  Level Estimated
09:13PM 27.1372 109.7720 139° Southeast  Level Estimated
09:14PM 27.0511 109.8566 139° Southeast  Level Estimated
09:15PM 26.9650 109.9410 139° Southeast  Level Estimated
09:16PM 26.8788 110.0253 139° Southeast  Level Estimated
09:17PM 26.7925 110.1095 139° Southeast  Level Estimated
09:18PM 26.7062 110.1935 139° Southeast  Level Estimated
09:19PM 26.6199 110.2775 139° Southeast  Level Estimated
09:20PM 26.5335 110.3612 139° Southeast  Level Estimated
09:21PM 26.4471 110.4449 139° Southeast  Level Estimated
09:22PM 26.3606 110.5285 139° Southeast  Level Estimated
09:23PM 26.2741 110.6119 139° Southeast  Level Estimated
09:24PM 26.1875 110.6952 139° Southeast  Level Estimated
09:25PM 26.1009 110.7783 139° Southeast  Level Estimated
09:26PM 26.0142 110.8614 139° Southeast  Level Estimated
09:27PM 25.9275 110.9443 139° Southeast  Level Estimated
09:28PM 25.8407 111.0271 139° Southeast  Level Estimated
09:29PM 25.7539 111.1098 139° Southeast  Level Estimated
09:30PM 25.6670 111.1923 139° Southeast  Level Estimated
09:31PM 25.5801 111.2748 139° Southeast  Level Estimated
09:32PM 25.4932 111.3571 139° Southeast  Level Estimated
09:33PM 25.4062 111.4393 140° Southeast  Level Estimated
09:34PM 25.3191 111.5214 140° Southeast  Level Estimated
09:35PM 25.2320 111.6033 140° Southeast  Level Estimated
09:36PM 25.1449 111.6852 140° Southeast  Level Estimated
09:37PM 25.0577 111.7669 140° Southeast  Level Estimated
09:38PM 24.9705 111.8485 140° Southeast  Level Estimated
09:39PM 24.8832 111.9300 140° Southeast  Level Estimated
09:40PM 24.7959 112.0114 140° Southeast  Level Estimated
09:41PM 24.7085 112.0927 140° Southeast  Level Estimated
09:42PM 24.6211 112.1738 140° Southeast  Level Estimated
09:43PM 24.5337 112.2548 140° Southeast  Level Estimated
09:43PM 24.5220 110.9350 140° Southeast 468 539 35,100  Level FlightAware
09:44PM 24.4462 112.3358 140° Southeast  Level Estimated
09:44PM 24.4250 111.0400 135° Southeast 466 536 35,100  Level FlightAware
09:45PM 24.3700 111.1000 135° Southeast 466 536 35,100  Level FlightAware
09:46PM 24.2970 111.1770 136° Southeast 459 528 35,100  Level FlightAware
09:46PM 24.2250 111.2540 136° Southeast 461 531 35,100 -360 Level FlightAware
09:47PM 24.1560 111.3280 136° Southeast 462 532 34,600 -840 Descending FlightAware
09:48PM 24.0900 111.4000 135° Southeast 461 531 33,900 -1,020 Descending FlightAware
09:49PM 24.0170 111.4780 136° Southeast 465 535 33,100 -1,080 Descending FlightAware
09:49PM 23.9540 111.5460 135° Southeast 468 539 32,400 -660 Descending FlightAware
09:50PM 23.9020 111.6030 135° Southeast 469 540 32,300 -960 Descending FlightAware
09:51PM 23.8280 111.6820 136° Southeast 473 544 31,100 -1,020 Descending FlightAware
09:52PM 23.7440 111.7730 135° Southeast 475 547 30,600 -360 Descending FlightAware
09:52PM 23.6960 111.8250 135° Southeast 475 547 30,600 -3,300 Level FlightAware
09:53PM 23.6070 111.9180 136° Southeast 449 517 26,100 -4,380 Descending FlightAware
09:54PM 23.5480 111.9810 136° Southeast 441 507 24,300 -2,700 Descending FlightAware
09:55PM 23.4660 112.0680 136° Southeast 430 495 21,800 -2,640 Descending FlightAware
09:56PM 23.3850 112.1540 136° Southeast 420 483 19,300 -2,640 Descending FlightAware
09:56PM 23.3300 112.2130 135° Southeast 414 476 17,500 -2,580 Descending FlightAware
09:57PM 23.2710 112.2750 136° Southeast 410 472 15,700 -2,460 Descending FlightAware
09:58PM 23.2160 112.3330 136° Southeast 398 458 14,100 -1,980 Descending FlightAware
09:58PM 23.1620 112.3910 135° Southeast 383 441 13,000 -960 Descending FlightAware
09:59PM 23.1080 112.4470 136° Southeast 386 444 12,800 -180 Descending FlightAware
10:00PM 23.0780 112.4900 127° Southeast 394 453 12,800  Level FlightAware
10:00PM 23.0700 112.5210 106° East 398 458 12,800  Level FlightAware
10:01PM 23.0700 112.6070 90° East 403 464 12,800  Level FlightAware
10:01PM 23.0700 112.6840 90° East 399 459 12,800 -540 Level FlightAware
10:02PM 23.0690 112.7610 91° East 398 458 12,100 -1,140 Descending FlightAware
10:03PM 23.0680 112.8560 91° East 373 429 11,200 -900 Descending FlightAware
10:03PM 23.0680 112.9270 90° East 340 391 10,800 -300 Descending FlightAware
10:04PM 23.0680 112.9970 90° East 306 352 10,800  Level FlightAware
10:05PM 23.0670 113.0570 91° East 306 352 10,800  Level FlightAware
10:06PM 23.0830 113.1390 78° East 299 344 10,800 -180 Level FlightAware
10:06PM 23.0970 113.1490 33° Northeast 292 336 10,600 -1,200 Descending FlightAware
10:06PM 23.1140 113.1530 12° North 283 326 10,300 -1,620 Descending FlightAware
10:07PM 23.1560 113.1450 350° North 279 321 9,400 -1,020 Descending FlightAware
10:07PM 23.2090 113.1460 North 292 336 9,100 -360 Descending FlightAware
10:08PM 23.2300 113.1490 North 294 338 9,100  Level FlightAware
10:08PM 23.2670 113.1570 11° North 292 336 9,100  Level FlightAware
10:08PM 23.3050 113.1650 11° North 291 335 9,100  Level FlightAware
10:09PM 23.3210 113.1680 10° North 292 336 9,100  Level FlightAware
10:09PM 23.3600 113.1770 12° North 294 338 9,100  Level FlightAware
10:10PM 23.3990 113.1850 11° North 294 338 9,100 -300 Level FlightAware
10:10PM 23.4250 113.1900 10° North 291 335 8,900 -1,140 Descending FlightAware
10:11PM 23.5160 113.2100 11° North 295 339 7,400 -1,380 Descending FlightAware
10:12PM 23.5600 113.2190 11° North 293 337 6,600 -1,200 Descending FlightAware
10:12PM 23.5960 113.2260 10° North 276 318 6,300 -540 Descending FlightAware
10:13PM 23.6320 113.2340 12° North 260 299 6,100 -240 Descending FlightAware
10:13PM 23.6600 113.2410 13° North 238 274 6,100  Level FlightAware
10:13PM 23.6760 113.2450 13° North 236 272 6,100 -300 Level FlightAware
10:14PM 23.7050 113.2600 25° Northeast 241 277 5,900 -720 Descending FlightAware
10:14PM 23.7110 113.2730 63° Northeast 235 270 5,600 -1,200 Descending FlightAware
10:14PM 23.7090 113.3040 94° East 218 251 5,100 -960 Descending FlightAware
10:16PM 23.6780 113.3630 120° Southeast 175 201 3,900 -720 Descending FlightAware
10:16PM 23.6610 113.3690 162° South 175 201 3,900 -540 Level FlightAware
10:17PM 23.6070 113.3680 181° South 173 199 3,200 -480 Descending FlightAware
10:18PM 23.5830 113.3610 195° South 163 188 3,200 -120 Level FlightAware
10:18PM 23.5610 113.3550 194° South 156 180 3,100 -480 Descending FlightAware
10:19PM 23.5430 113.3500 194° South 143 165 2,800 -720 Descending FlightAware
10:19PM 23.5280 113.3470 190° South 129 148 2,500 -360 Descending FlightAware
10:19PM 23.5150 113.3430 196° South 129 148 2,500  Level FlightAware
10:22PM 23.3924 113.2988 198° South  Level Estimated